sensor_id;sensor_type;location;lat;lon;timestamp;P1;durP1;ratioP1;P2;durP2;ratioP2
4601;SDS011;2313;48.552;9.370;2023-05-07T00:00:16;7.53;;;3.67;;
4601;SDS011;2313;48.552;9.370;2023-05-07T00:02:43;4.00;;;3.17;;
4601;SDS011;2313;48.552;9.370;2023-05-07T00:05:12;11.80;;;3.90;;
4601;SDS011;2313;48.552;9.370;2023-05-07T00:07:37;11.23;;;2.83;;
4601;SDS011;2313;48.552;9.370;2023-05-07T00:10:03;4.00;;;2.53;;
4601;SDS011;2313;48.552;9.370;2023-05-07T00:12:31;3.07;;;2.20;;
4601;SDS011;2313;48.552;9.370;2023-05-07T00:14:58;9.83;;;6.70;;
4601;SDS011;2313;48.552;9.370;2023-05-07T00:17:25;22.10;;;11.10;;
4601;SDS011;2313;48.552;9.370;2023-05-07T00:19:51;11.80;;;6.03;;
4601;SDS011;2313;48.552;9.370;2023-05-07T00:22:16;5.33;;;3.27;;
4601;SDS011;2313;48.552;9.370;2023-05-07T00:24:42;5.33;;;2.63;;
4601;SDS011;2313;48.552;9.370;2023-05-07T00:27:08;3.20;;;1.93;;
4601;SDS011;2313;48.552;9.370;2023-05-07T00:29:33;3.07;;;2.00;;
4601;SDS011;2313;48.552;9.370;2023-05-07T00:31:59;1.90;;;1.60;;
4601;SDS011;2313;48.552;9.370;2023-05-07T00:34:24;3.07;;;2.10;;
4601;SDS011;2313;48.552;9.370;2023-05-07T00:36:50;11.43;;;4.97;;
4601;SDS011;2313;48.552;9.370;2023-05-07T00:39:15;9.23;;;6.53;;
4601;SDS011;2313;48.552;9.370;2023-05-07T00:41:41;34.07;;;14.87;;
4601;SDS011;2313;48.552;9.370;2023-05-07T00:44:07;21.47;;;10.00;;
4601;SDS011;2313;48.552;9.370;2023-05-07T00:46:32;4.60;;;3.80;;
4601;SDS011;2313;48.552;9.370;2023-05-07T00:48:58;7.77;;;3.30;;
4601;SDS011;2313;48.552;9.370;2023-05-07T00:51:25;6.90;;;3.00;;
4601;SDS011;2313;48.552;9.370;2023-05-07T00:53:52;4.70;;;3.53;;
4601;SDS011;2313;48.552;9.370;2023-05-07T00:56:19;3.10;;;2.40;;
4601;SDS011;2313;48.552;9.370;2023-05-07T00:58:48;2.93;;;2.27;;
4601;SDS011;2313;48.552;9.370;2023-05-07T01:01:14;3.30;;;2.57;;
4601;SDS011;2313;48.552;9.370;2023-05-07T01:03:41;3.73;;;2.80;;
4601;SDS011;2313;48.552;9.370;2023-05-07T01:06:07;25.53;;;16.73;;
4601;SDS011;2313;48.552;9.370;2023-05-07T01:08:34;19.07;;;10.90;;
4601;SDS011;2313;48.552;9.370;2023-05-07T01:11:01;27.93;;;14.87;;
4601;SDS011;2313;48.552;9.370;2023-05-07T01:13:28;27.13;;;8.50;;
4601;SDS011;2313;48.552;9.370;2023-05-07T01:15:54;10.00;;;6.20;;
4601;SDS011;2313;48.552;9.370;2023-05-07T01:18:20;8.57;;;5.70;;
4601;SDS011;2313;48.552;9.370;2023-05-07T01:20:46;7.20;;;5.20;;
4601;SDS011;2313;48.552;9.370;2023-05-07T01:23:12;8.07;;;5.30;;
4601;SDS011;2313;48.552;9.370;2023-05-07T01:25:38;11.87;;;5.60;;
4601;SDS011;2313;48.552;9.370;2023-05-07T01:28:03;6.70;;;4.50;;
4601;SDS011;2313;48.552;9.370;2023-05-07T01:30:30;3.97;;;3.47;;
4601;SDS011;2313;48.552;9.370;2023-05-07T01:35:30;4.13;;;3.33;;
4601;SDS011;2313;48.552;9.370;2023-05-07T01:38:00;4.43;;;2.63;;
4601;SDS011;2313;48.552;9.370;2023-05-07T01:40:29;5.30;;;3.73;;
4601;SDS011;2313;48.552;9.370;2023-05-07T01:43:02;7.00;;;3.50;;
4601;SDS011;2313;48.552;9.370;2023-05-07T01:45:28;5.20;;;3.90;;
4601;SDS011;2313;48.552;9.370;2023-05-07T01:47:55;4.00;;;3.40;;
4601;SDS011;2313;48.552;9.370;2023-05-07T01:50:21;3.17;;;2.97;;
4601;SDS011;2313;48.552;9.370;2023-05-07T01:52:49;4.90;;;3.83;;
4601;SDS011;2313;48.552;9.370;2023-05-07T01:55:16;3.13;;;2.83;;
4601;SDS011;2313;48.552;9.370;2023-05-07T01:57:41;4.90;;;2.80;;
4601;SDS011;2313;48.552;9.370;2023-05-07T02:00:07;12.33;;;3.30;;
4601;SDS011;2313;48.552;9.370;2023-05-07T02:02:34;3.53;;;2.70;;
4601;SDS011;2313;48.552;9.370;2023-05-07T02:05:00;4.50;;;2.43;;
4601;SDS011;2313;48.552;9.370;2023-05-07T02:07:28;6.63;;;2.73;;
4601;SDS011;2313;48.552;9.370;2023-05-07T02:09:53;4.97;;;2.57;;
4601;SDS011;2313;48.552;9.370;2023-05-07T02:12:20;3.30;;;2.70;;
4601;SDS011;2313;48.552;9.370;2023-05-07T02:14:46;3.37;;;2.37;;
4601;SDS011;2313;48.552;9.370;2023-05-07T02:17:11;3.10;;;2.90;;
4601;SDS011;2313;48.552;9.370;2023-05-07T02:19:37;4.00;;;2.73;;
4601;SDS011;2313;48.552;9.370;2023-05-07T02:22:03;3.73;;;2.93;;
4601;SDS011;2313;48.552;9.370;2023-05-07T02:24:28;4.27;;;2.80;;
4601;SDS011;2313;48.552;9.370;2023-05-07T02:26:54;3.03;;;2.83;;
4601;SDS011;2313;48.552;9.370;2023-05-07T02:29:20;7.73;;;3.20;;
4601;SDS011;2313;48.552;9.370;2023-05-07T02:31:46;4.03;;;3.27;;
4601;SDS011;2313;48.552;9.370;2023-05-07T02:34:15;5.47;;;3.07;;
4601;SDS011;2313;48.552;9.370;2023-05-07T02:36:41;4.33;;;3.10;;
4601;SDS011;2313;48.552;9.370;2023-05-07T02:39:07;7.97;;;4.00;;
4601;SDS011;2313;48.552;9.370;2023-05-07T02:41:32;6.23;;;4.37;;
4601;SDS011;2313;48.552;9.370;2023-05-07T02:43:58;6.97;;;4.53;;
4601;SDS011;2313;48.552;9.370;2023-05-07T02:46:24;8.73;;;5.43;;
4601;SDS011;2313;48.552;9.370;2023-05-07T02:48:49;11.03;;;5.67;;
4601;SDS011;2313;48.552;9.370;2023-05-07T02:51:16;9.40;;;5.27;;
4601;SDS011;2313;48.552;9.370;2023-05-07T02:53:45;8.07;;;5.83;;
4601;SDS011;2313;48.552;9.370;2023-05-07T02:56:11;5.83;;;5.33;;
4601;SDS011;2313;48.552;9.370;2023-05-07T02:58:37;10.00;;;6.10;;
4601;SDS011;2313;48.552;9.370;2023-05-07T03:01:04;9.33;;;5.93;;
4601;SDS011;2313;48.552;9.370;2023-05-07T03:03:30;6.80;;;5.20;;
4601;SDS011;2313;48.552;9.370;2023-05-07T03:05:56;8.83;;;5.00;;
4601;SDS011;2313;48.552;9.370;2023-05-07T03:08:21;11.80;;;5.97;;
4601;SDS011;2313;48.552;9.370;2023-05-07T03:10:47;6.57;;;5.77;;
4601;SDS011;2313;48.552;9.370;2023-05-07T03:13:13;9.17;;;6.43;;
4601;SDS011;2313;48.552;9.370;2023-05-07T03:15:39;7.60;;;5.70;;
4601;SDS011;2313;48.552;9.370;2023-05-07T03:18:05;5.93;;;5.33;;
4601;SDS011;2313;48.552;9.370;2023-05-07T03:20:30;8.70;;;5.90;;
4601;SDS011;2313;48.552;9.370;2023-05-07T03:22:56;8.47;;;6.60;;
4601;SDS011;2313;48.552;9.370;2023-05-07T03:25:22;8.53;;;6.10;;
4601;SDS011;2313;48.552;9.370;2023-05-07T03:27:47;6.10;;;5.33;;
4601;SDS011;2313;48.552;9.370;2023-05-07T03:30:13;8.87;;;5.80;;
4601;SDS011;2313;48.552;9.370;2023-05-07T03:32:39;7.07;;;6.10;;
4601;SDS011;2313;48.552;9.370;2023-05-07T03:35:05;6.27;;;5.50;;
4601;SDS011;2313;48.552;9.370;2023-05-07T03:37:30;6.27;;;5.67;;
4601;SDS011;2313;48.552;9.370;2023-05-07T03:39:56;11.30;;;6.80;;
4601;SDS011;2313;48.552;9.370;2023-05-07T03:42:22;6.80;;;5.27;;
4601;SDS011;2313;48.552;9.370;2023-05-07T03:44:47;9.80;;;6.50;;
4601;SDS011;2313;48.552;9.370;2023-05-07T03:47:13;11.17;;;6.07;;
4601;SDS011;2313;48.552;9.370;2023-05-07T03:49:39;10.07;;;7.13;;
4601;SDS011;2313;48.552;9.370;2023-05-07T03:52:05;7.40;;;6.70;;
4601;SDS011;2313;48.552;9.370;2023-05-07T03:54:31;6.73;;;6.03;;
4601;SDS011;2313;48.552;9.370;2023-05-07T03:56:56;12.10;;;7.40;;
4601;SDS011;2313;48.552;9.370;2023-05-07T03:59:22;12.10;;;5.90;;
4601;SDS011;2313;48.552;9.370;2023-05-07T04:01:48;6.03;;;5.43;;
4601;SDS011;2313;48.552;9.370;2023-05-07T04:04:14;11.37;;;6.17;;
4601;SDS011;2313;48.552;9.370;2023-05-07T04:06:40;8.10;;;5.17;;
4601;SDS011;2313;48.552;9.370;2023-05-07T04:09:06;10.03;;;6.20;;
4601;SDS011;2313;48.552;9.370;2023-05-07T04:11:31;7.63;;;6.40;;
4601;SDS011;2313;48.552;9.370;2023-05-07T04:13:57;9.30;;;6.20;;
4601;SDS011;2313;48.552;9.370;2023-05-07T04:16:23;10.20;;;5.93;;
4601;SDS011;2313;48.552;9.370;2023-05-07T04:18:48;9.03;;;5.03;;
4601;SDS011;2313;48.552;9.370;2023-05-07T04:21:17;9.20;;;5.53;;
4601;SDS011;2313;48.552;9.370;2023-05-07T04:23:45;9.07;;;5.10;;
4601;SDS011;2313;48.552;9.370;2023-05-07T04:26:14;6.70;;;5.17;;
4601;SDS011;2313;48.552;9.370;2023-05-07T04:28:40;7.30;;;5.00;;
4601;SDS011;2313;48.552;9.370;2023-05-07T04:31:06;5.87;;;5.27;;
4601;SDS011;2313;48.552;9.370;2023-05-07T04:33:31;5.83;;;5.07;;
4601;SDS011;2313;48.552;9.370;2023-05-07T04:35:58;7.60;;;5.00;;
4601;SDS011;2313;48.552;9.370;2023-05-07T04:38:27;11.00;;;5.53;;
4601;SDS011;2313;48.552;9.370;2023-05-07T04:40:54;10.60;;;5.60;;
4601;SDS011;2313;48.552;9.370;2023-05-07T04:43:20;10.13;;;6.00;;
4601;SDS011;2313;48.552;9.370;2023-05-07T04:45:46;5.83;;;5.20;;
4601;SDS011;2313;48.552;9.370;2023-05-07T04:48:11;16.27;;;6.20;;
4601;SDS011;2313;48.552;9.370;2023-05-07T04:50:39;10.90;;;6.10;;
4601;SDS011;2313;48.552;9.370;2023-05-07T04:53:05;10.73;;;6.43;;
4601;SDS011;2313;48.552;9.370;2023-05-07T04:55:31;11.27;;;5.97;;
4601;SDS011;2313;48.552;9.370;2023-05-07T04:57:56;12.07;;;5.70;;
4601;SDS011;2313;48.552;9.370;2023-05-07T05:00:22;8.20;;;6.03;;
4601;SDS011;2313;48.552;9.370;2023-05-07T05:02:48;8.10;;;6.30;;
4601;SDS011;2313;48.552;9.370;2023-05-07T05:05:13;10.20;;;6.27;;
4601;SDS011;2313;48.552;9.370;2023-05-07T05:07:39;10.03;;;6.23;;
4601;SDS011;2313;48.552;9.370;2023-05-07T05:10:05;8.80;;;6.57;;
4601;SDS011;2313;48.552;9.370;2023-05-07T05:12:31;8.07;;;6.00;;
4601;SDS011;2313;48.552;9.370;2023-05-07T05:14:56;7.90;;;6.20;;
4601;SDS011;2313;48.552;9.370;2023-05-07T05:17:23;9.80;;;6.10;;
4601;SDS011;2313;48.552;9.370;2023-05-07T05:19:48;9.00;;;6.40;;
4601;SDS011;2313;48.552;9.370;2023-05-07T05:22:14;8.60;;;6.60;;
4601;SDS011;2313;48.552;9.370;2023-05-07T05:24:40;13.53;;;6.10;;
4601;SDS011;2313;48.552;9.370;2023-05-07T05:27:05;12.90;;;5.77;;
4601;SDS011;2313;48.552;9.370;2023-05-07T05:29:31;5.60;;;5.00;;
4601;SDS011;2313;48.552;9.370;2023-05-07T05:31:57;6.60;;;5.83;;
4601;SDS011;2313;48.552;9.370;2023-05-07T05:34:22;6.30;;;5.53;;
4601;SDS011;2313;48.552;9.370;2023-05-07T05:36:48;4.73;;;4.33;;
4601;SDS011;2313;48.552;9.370;2023-05-07T05:39:13;7.40;;;4.73;;
4601;SDS011;2313;48.552;9.370;2023-05-07T05:41:39;8.43;;;5.70;;
4601;SDS011;2313;48.552;9.370;2023-05-07T05:44:05;6.17;;;4.63;;
4601;SDS011;2313;48.552;9.370;2023-05-07T05:46:31;5.53;;;4.83;;
4601;SDS011;2313;48.552;9.370;2023-05-07T05:48:57;5.93;;;4.50;;
4601;SDS011;2313;48.552;9.370;2023-05-07T05:51:22;10.77;;;5.13;;
4601;SDS011;2313;48.552;9.370;2023-05-07T05:53:48;7.43;;;4.93;;
4601;SDS011;2313;48.552;9.370;2023-05-07T05:56:14;7.43;;;4.70;;
4601;SDS011;2313;48.552;9.370;2023-05-07T05:58:40;7.33;;;4.70;;
4601;SDS011;2313;48.552;9.370;2023-05-07T06:01:06;5.03;;;4.33;;
4601;SDS011;2313;48.552;9.370;2023-05-07T06:03:32;5.70;;;4.93;;
4601;SDS011;2313;48.552;9.370;2023-05-07T06:05:57;8.07;;;4.83;;
4601;SDS011;2313;48.552;9.370;2023-05-07T06:08:24;11.07;;;4.83;;
4601;SDS011;2313;48.552;9.370;2023-05-07T06:10:50;7.60;;;4.70;;
4601;SDS011;2313;48.552;9.370;2023-05-07T06:13:16;7.00;;;5.30;;
4601;SDS011;2313;48.552;9.370;2023-05-07T06:15:45;5.27;;;4.70;;
4601;SDS011;2313;48.552;9.370;2023-05-07T06:18:10;13.30;;;5.00;;
4601;SDS011;2313;48.552;9.370;2023-05-07T06:20:36;6.00;;;4.90;;
4601;SDS011;2313;48.552;9.370;2023-05-07T06:23:01;5.87;;;5.27;;
4601;SDS011;2313;48.552;9.370;2023-05-07T06:25:27;4.70;;;4.33;;
4601;SDS011;2313;48.552;9.370;2023-05-07T06:27:52;4.43;;;4.10;;
4601;SDS011;2313;48.552;9.370;2023-05-07T06:30:18;6.57;;;4.73;;
4601;SDS011;2313;48.552;9.370;2023-05-07T06:32:44;13.80;;;5.20;;
4601;SDS011;2313;48.552;9.370;2023-05-07T06:35:09;7.47;;;4.90;;
4601;SDS011;2313;48.552;9.370;2023-05-07T06:37:35;6.97;;;4.40;;
4601;SDS011;2313;48.552;9.370;2023-05-07T06:40:03;6.53;;;4.53;;
4601;SDS011;2313;48.552;9.370;2023-05-07T06:42:30;5.30;;;4.30;;
4601;SDS011;2313;48.552;9.370;2023-05-07T06:44:55;5.33;;;4.83;;
4601;SDS011;2313;48.552;9.370;2023-05-07T06:47:21;9.60;;;4.10;;
4601;SDS011;2313;48.552;9.370;2023-05-07T06:49:46;8.37;;;4.40;;
4601;SDS011;2313;48.552;9.370;2023-05-07T06:52:12;5.83;;;4.50;;
4601;SDS011;2313;48.552;9.370;2023-05-07T06:54:37;5.10;;;3.80;;
4601;SDS011;2313;48.552;9.370;2023-05-07T06:57:03;9.80;;;4.53;;
4601;SDS011;2313;48.552;9.370;2023-05-07T06:59:29;5.90;;;3.67;;
4601;SDS011;2313;48.552;9.370;2023-05-07T07:01:54;15.53;;;3.97;;
4601;SDS011;2313;48.552;9.370;2023-05-07T07:04:20;11.60;;;3.77;;
4601;SDS011;2313;48.552;9.370;2023-05-07T07:06:48;7.80;;;4.03;;
4601;SDS011;2313;48.552;9.370;2023-05-07T07:09:13;6.03;;;3.40;;
4601;SDS011;2313;48.552;9.370;2023-05-07T07:11:39;4.00;;;3.60;;
4601;SDS011;2313;48.552;9.370;2023-05-07T07:14:04;5.30;;;3.43;;
4601;SDS011;2313;48.552;9.370;2023-05-07T07:16:30;6.10;;;3.53;;
4601;SDS011;2313;48.552;9.370;2023-05-07T07:18:56;6.13;;;3.90;;
4601;SDS011;2313;48.552;9.370;2023-05-07T07:21:21;8.57;;;3.50;;
4601;SDS011;2313;48.552;9.370;2023-05-07T07:23:47;5.10;;;4.07;;
4601;SDS011;2313;48.552;9.370;2023-05-07T07:26:13;6.70;;;3.83;;
4601;SDS011;2313;48.552;9.370;2023-05-07T07:28:42;7.23;;;3.93;;
4601;SDS011;2313;48.552;9.370;2023-05-07T07:31:08;4.60;;;3.83;;
4601;SDS011;2313;48.552;9.370;2023-05-07T07:33:34;4.07;;;3.47;;
4601;SDS011;2313;48.552;9.370;2023-05-07T07:36:00;7.17;;;3.97;;
4601;SDS011;2313;48.552;9.370;2023-05-07T07:38:25;10.60;;;4.13;;
4601;SDS011;2313;48.552;9.370;2023-05-07T07:40:51;7.60;;;3.37;;
4601;SDS011;2313;48.552;9.370;2023-05-07T07:43:17;8.73;;;3.50;;
4601;SDS011;2313;48.552;9.370;2023-05-07T07:45:42;4.70;;;3.80;;
4601;SDS011;2313;48.552;9.370;2023-05-07T07:48:08;5.67;;;3.37;;
4601;SDS011;2313;48.552;9.370;2023-05-07T07:50:34;5.57;;;3.10;;
4601;SDS011;2313;48.552;9.370;2023-05-07T07:53:00;8.77;;;3.63;;
4601;SDS011;2313;48.552;9.370;2023-05-07T07:55:25;3.83;;;3.53;;
4601;SDS011;2313;48.552;9.370;2023-05-07T07:57:52;3.80;;;2.77;;
4601;SDS011;2313;48.552;9.370;2023-05-07T08:00:17;4.50;;;3.13;;
4601;SDS011;2313;48.552;9.370;2023-05-07T08:02:43;4.83;;;3.60;;
4601;SDS011;2313;48.552;9.370;2023-05-07T08:05:09;7.87;;;3.23;;
4601;SDS011;2313;48.552;9.370;2023-05-07T08:07:34;3.87;;;2.70;;
4601;SDS011;2313;48.552;9.370;2023-05-07T08:10:00;5.00;;;3.00;;
4601;SDS011;2313;48.552;9.370;2023-05-07T08:12:25;9.17;;;3.37;;
4601;SDS011;2313;48.552;9.370;2023-05-07T08:14:51;3.93;;;2.73;;
4601;SDS011;2313;48.552;9.370;2023-05-07T08:17:17;8.67;;;3.83;;
4601;SDS011;2313;48.552;9.370;2023-05-07T08:19:42;3.37;;;3.17;;
4601;SDS011;2313;48.552;9.370;2023-05-07T08:22:09;4.50;;;3.07;;
4601;SDS011;2313;48.552;9.370;2023-05-07T08:24:35;3.80;;;3.07;;
4601;SDS011;2313;48.552;9.370;2023-05-07T08:27:01;5.70;;;3.30;;
4601;SDS011;2313;48.552;9.370;2023-05-07T08:29:26;6.17;;;2.90;;
4601;SDS011;2313;48.552;9.370;2023-05-07T08:31:52;5.23;;;3.20;;
4601;SDS011;2313;48.552;9.370;2023-05-07T08:34:18;3.27;;;2.90;;
4601;SDS011;2313;48.552;9.370;2023-05-07T08:36:43;4.80;;;3.10;;
4601;SDS011;2313;48.552;9.370;2023-05-07T08:39:11;4.57;;;2.60;;
4601;SDS011;2313;48.552;9.370;2023-05-07T08:41:37;3.63;;;3.00;;
4601;SDS011;2313;48.552;9.370;2023-05-07T08:44:03;4.60;;;3.30;;
4601;SDS011;2313;48.552;9.370;2023-05-07T08:46:36;3.73;;;2.80;;
4601;SDS011;2313;48.552;9.370;2023-05-07T08:49:02;4.50;;;2.70;;
4601;SDS011;2313;48.552;9.370;2023-05-07T08:51:28;3.20;;;2.90;;
4601;SDS011;2313;48.552;9.370;2023-05-07T08:53:53;5.17;;;2.50;;
4601;SDS011;2313;48.552;9.370;2023-05-07T08:56:19;4.03;;;2.80;;
4601;SDS011;2313;48.552;9.370;2023-05-07T08:58:45;10.03;;;3.43;;
4601;SDS011;2313;48.552;9.370;2023-05-07T09:01:15;3.40;;;3.10;;
4601;SDS011;2313;48.552;9.370;2023-05-07T09:03:44;6.07;;;3.00;;
4601;SDS011;2313;48.552;9.370;2023-05-07T09:06:11;6.50;;;3.30;;
4601;SDS011;2313;48.552;9.370;2023-05-07T09:08:37;7.53;;;3.07;;
4601;SDS011;2313;48.552;9.370;2023-05-07T09:11:03;2.63;;;2.27;;
4601;SDS011;2313;48.552;9.370;2023-05-07T09:13:29;2.60;;;2.40;;
4601;SDS011;2313;48.552;9.370;2023-05-07T09:15:55;3.10;;;2.80;;
4601;SDS011;2313;48.552;9.370;2023-05-07T09:18:21;3.23;;;2.30;;
4601;SDS011;2313;48.552;9.370;2023-05-07T09:20:48;5.80;;;2.80;;
4601;SDS011;2313;48.552;9.370;2023-05-07T09:23:14;2.80;;;2.60;;
4601;SDS011;2313;48.552;9.370;2023-05-07T09:25:40;3.97;;;2.57;;
4601;SDS011;2313;48.552;9.370;2023-05-07T09:28:05;4.50;;;2.83;;
4601;SDS011;2313;48.552;9.370;2023-05-07T09:30:32;2.80;;;2.40;;
4601;SDS011;2313;48.552;9.370;2023-05-07T09:32:59;11.80;;;2.53;;
4601;SDS011;2313;48.552;9.370;2023-05-07T09:35:26;5.23;;;2.23;;
4601;SDS011;2313;48.552;9.370;2023-05-07T09:37:56;4.87;;;2.00;;
4601;SDS011;2313;48.552;9.370;2023-05-07T09:40:24;4.93;;;2.70;;
4601;SDS011;2313;48.552;9.370;2023-05-07T09:42:51;4.40;;;2.20;;
4601;SDS011;2313;48.552;9.370;2023-05-07T09:45:26;3.03;;;2.00;;
4601;SDS011;2313;48.552;9.370;2023-05-07T09:47:56;4.60;;;2.10;;
4601;SDS011;2313;48.552;9.370;2023-05-07T09:50:28;1.63;;;1.53;;
4601;SDS011;2313;48.552;9.370;2023-05-07T09:52:55;2.90;;;1.77;;
4601;SDS011;2313;48.552;9.370;2023-05-07T09:55:22;2.00;;;1.80;;
4601;SDS011;2313;48.552;9.370;2023-05-07T09:57:52;2.50;;;1.90;;
4601;SDS011;2313;48.552;9.370;2023-05-07T10:00:19;1.80;;;1.70;;
4601;SDS011;2313;48.552;9.370;2023-05-07T10:02:49;3.17;;;1.80;;
4601;SDS011;2313;48.552;9.370;2023-05-07T10:05:20;3.70;;;1.80;;
4601;SDS011;2313;48.552;9.370;2023-05-07T10:07:47;5.17;;;1.50;;
4601;SDS011;2313;48.552;9.370;2023-05-07T10:10:13;2.60;;;1.50;;
4601;SDS011;2313;48.552;9.370;2023-05-07T10:12:40;2.10;;;1.63;;
4601;SDS011;2313;48.552;9.370;2023-05-07T10:15:07;2.03;;;1.50;;
4601;SDS011;2313;48.552;9.370;2023-05-07T10:17:40;2.00;;;1.50;;
4601;SDS011;2313;48.552;9.370;2023-05-07T10:20:06;6.37;;;1.57;;
4601;SDS011;2313;48.552;9.370;2023-05-07T10:22:37;2.13;;;1.50;;
4601;SDS011;2313;48.552;9.370;2023-05-07T10:25:30;7.03;;;1.67;;
4601;SDS011;2313;48.552;9.370;2023-05-07T10:27:57;3.23;;;1.60;;
4601;SDS011;2313;48.552;9.370;2023-05-07T10:30:33;2.30;;;1.60;;
4601;SDS011;2313;48.552;9.370;2023-05-07T10:33:39;3.87;;;2.20;;
4601;SDS011;2313;48.552;9.370;2023-05-07T10:36:06;3.33;;;1.80;;
4601;SDS011;2313;48.552;9.370;2023-05-07T10:38:32;2.20;;;1.70;;
4601;SDS011;2313;48.552;9.370;2023-05-07T10:40:58;1.80;;;1.70;;
4601;SDS011;2313;48.552;9.370;2023-05-07T10:43:24;2.20;;;1.83;;
4601;SDS011;2313;48.552;9.370;2023-05-07T10:48:38;3.17;;;1.90;;
4601;SDS011;2313;48.552;9.370;2023-05-07T10:51:28;2.53;;;1.53;;
4601;SDS011;2313;48.552;9.370;2023-05-07T10:56:45;1.87;;;1.57;;
4601;SDS011;2313;48.552;9.370;2023-05-07T11:04:22;2.17;;;1.60;;
4601;SDS011;2313;48.552;9.370;2023-05-07T11:13:02;1.30;;;1.20;;
4601;SDS011;2313;48.552;9.370;2023-05-07T11:17:32;3.13;;;1.80;;
4601;SDS011;2313;48.552;9.370;2023-05-07T11:20:00;2.00;;;1.80;;
4601;SDS011;2313;48.552;9.370;2023-05-07T11:25:00;2.20;;;1.80;;
4601;SDS011;2313;48.552;9.370;2023-05-07T11:27:29;3.33;;;1.60;;
4601;SDS011;2313;48.552;9.370;2023-05-07T11:29:55;4.33;;;2.00;;
4601;SDS011;2313;48.552;9.370;2023-05-07T11:32:24;1.73;;;1.60;;
4601;SDS011;2313;48.552;9.370;2023-05-07T11:34:51;10.40;;;2.50;;
4601;SDS011;2313;48.552;9.370;2023-05-07T11:37:18;10.07;;;2.60;;
4601;SDS011;2313;48.552;9.370;2023-05-07T11:39:44;6.70;;;3.70;;
4601;SDS011;2313;48.552;9.370;2023-05-07T11:42:27;12.20;;;3.57;;
4601;SDS011;2313;48.552;9.370;2023-05-07T11:44:57;8.53;;;3.40;;
4601;SDS011;2313;48.552;9.370;2023-05-07T11:47:23;6.60;;;2.40;;
4601;SDS011;2313;48.552;9.370;2023-05-07T11:49:51;7.33;;;4.40;;
4601;SDS011;2313;48.552;9.370;2023-05-07T11:52:18;16.70;;;4.47;;
4601;SDS011;2313;48.552;9.370;2023-05-07T11:54:52;3.27;;;2.03;;
4601;SDS011;2313;48.552;9.370;2023-05-07T11:57:20;10.63;;;3.60;;
4601;SDS011;2313;48.552;9.370;2023-05-07T11:59:46;8.60;;;3.23;;
4601;SDS011;2313;48.552;9.370;2023-05-07T12:02:15;8.63;;;3.50;;
4601;SDS011;2313;48.552;9.370;2023-05-07T12:04:41;8.73;;;3.90;;
4601;SDS011;2313;48.552;9.370;2023-05-07T12:07:13;15.13;;;4.30;;
4601;SDS011;2313;48.552;9.370;2023-05-07T12:09:40;7.50;;;3.40;;
4601;SDS011;2313;48.552;9.370;2023-05-07T12:12:07;9.27;;;5.10;;
4601;SDS011;2313;48.552;9.370;2023-05-07T12:14:33;11.43;;;4.77;;
4601;SDS011;2313;48.552;9.370;2023-05-07T12:17:03;12.23;;;5.73;;
4601;SDS011;2313;48.552;9.370;2023-05-07T12:19:30;16.60;;;5.67;;
4601;SDS011;2313;48.552;9.370;2023-05-07T12:21:58;18.20;;;6.93;;
4601;SDS011;2313;48.552;9.370;2023-05-07T12:24:24;13.50;;;5.97;;
4601;SDS011;2313;48.552;9.370;2023-05-07T12:26:49;10.60;;;6.13;;
4601;SDS011;2313;48.552;9.370;2023-05-07T12:29:15;10.23;;;6.50;;
4601;SDS011;2313;48.552;9.370;2023-05-07T12:31:41;9.80;;;7.00;;
4601;SDS011;2313;48.552;9.370;2023-05-07T12:34:07;7.23;;;6.10;;
4601;SDS011;2313;48.552;9.370;2023-05-07T12:36:36;7.30;;;5.47;;
4601;SDS011;2313;48.552;9.370;2023-05-07T12:39:06;16.90;;;5.27;;
4601;SDS011;2313;48.552;9.370;2023-05-07T12:41:55;6.00;;;4.93;;
4601;SDS011;2313;48.552;9.370;2023-05-07T12:44:23;7.00;;;4.63;;
4601;SDS011;2313;48.552;9.370;2023-05-07T12:46:58;6.43;;;4.97;;
4601;SDS011;2313;48.552;9.370;2023-05-07T12:49:26;7.30;;;4.70;;
4601;SDS011;2313;48.552;9.370;2023-05-07T12:51:52;6.50;;;5.80;;
4601;SDS011;2313;48.552;9.370;2023-05-07T12:54:31;9.77;;;6.60;;
4601;SDS011;2313;48.552;9.370;2023-05-07T12:57:01;7.33;;;5.97;;
4601;SDS011;2313;48.552;9.370;2023-05-07T12:59:39;5.00;;;4.60;;
4601;SDS011;2313;48.552;9.370;2023-05-07T13:02:06;7.30;;;5.70;;
4601;SDS011;2313;48.552;9.370;2023-05-07T13:04:32;5.60;;;5.10;;
4601;SDS011;2313;48.552;9.370;2023-05-07T13:06:58;6.40;;;4.83;;
4601;SDS011;2313;48.552;9.370;2023-05-07T13:09:25;6.03;;;4.33;;
4601;SDS011;2313;48.552;9.370;2023-05-07T13:11:50;7.40;;;4.77;;
4601;SDS011;2313;48.552;9.370;2023-05-07T13:14:16;8.47;;;4.97;;
4601;SDS011;2313;48.552;9.370;2023-05-07T13:16:42;5.43;;;4.87;;
4601;SDS011;2313;48.552;9.370;2023-05-07T13:19:08;5.37;;;4.90;;
4601;SDS011;2313;48.552;9.370;2023-05-07T13:21:33;5.53;;;4.97;;
4601;SDS011;2313;48.552;9.370;2023-05-07T13:23:59;6.40;;;5.10;;
4601;SDS011;2313;48.552;9.370;2023-05-07T13:26:25;7.20;;;5.50;;
4601;SDS011;2313;48.552;9.370;2023-05-07T13:28:51;5.17;;;4.67;;
4601;SDS011;2313;48.552;9.370;2023-05-07T13:31:17;5.47;;;4.10;;
4601;SDS011;2313;48.552;9.370;2023-05-07T13:33:43;5.20;;;3.37;;
4601;SDS011;2313;48.552;9.370;2023-05-07T13:36:09;4.73;;;3.00;;
4601;SDS011;2313;48.552;9.370;2023-05-07T13:38:34;5.43;;;3.30;;
4601;SDS011;2313;48.552;9.370;2023-05-07T13:41:00;4.63;;;4.23;;
4601;SDS011;2313;48.552;9.370;2023-05-07T13:43:26;6.23;;;3.43;;
4601;SDS011;2313;48.552;9.370;2023-05-07T13:45:51;3.30;;;3.00;;
4601;SDS011;2313;48.552;9.370;2023-05-07T13:48:17;5.77;;;2.87;;
4601;SDS011;2313;48.552;9.370;2023-05-07T13:50:43;3.83;;;3.13;;
4601;SDS011;2313;48.552;9.370;2023-05-07T13:53:08;4.73;;;2.57;;
4601;SDS011;2313;48.552;9.370;2023-05-07T13:55:34;2.90;;;2.20;;
4601;SDS011;2313;48.552;9.370;2023-05-07T13:58:00;4.43;;;2.60;;
4601;SDS011;2313;48.552;9.370;2023-05-07T14:00:28;9.53;;;3.03;;
4601;SDS011;2313;48.552;9.370;2023-05-07T14:02:54;7.77;;;3.10;;
4601;SDS011;2313;48.552;9.370;2023-05-07T14:05:20;4.47;;;2.70;;
4601;SDS011;2313;48.552;9.370;2023-05-07T14:07:48;4.77;;;2.77;;
4601;SDS011;2313;48.552;9.370;2023-05-07T14:10:16;4.60;;;2.33;;
4601;SDS011;2313;48.552;9.370;2023-05-07T14:12:43;6.80;;;3.00;;
4601;SDS011;2313;48.552;9.370;2023-05-07T14:15:09;3.90;;;2.97;;
4601;SDS011;2313;48.552;9.370;2023-05-07T14:17:35;5.27;;;2.90;;
4601;SDS011;2313;48.552;9.370;2023-05-07T14:20:01;8.03;;;3.87;;
4601;SDS011;2313;48.552;9.370;2023-05-07T14:22:26;4.00;;;3.37;;
4601;SDS011;2313;48.552;9.370;2023-05-07T14:24:52;4.20;;;3.20;;
4601;SDS011;2313;48.552;9.370;2023-05-07T14:27:17;7.37;;;4.50;;
4601;SDS011;2313;48.552;9.370;2023-05-07T14:29:43;5.63;;;4.47;;
4601;SDS011;2313;48.552;9.370;2023-05-07T14:32:10;8.80;;;5.43;;
4601;SDS011;2313;48.552;9.370;2023-05-07T14:34:36;8.80;;;5.70;;
4601;SDS011;2313;48.552;9.370;2023-05-07T14:37:01;6.67;;;5.00;;
4601;SDS011;2313;48.552;9.370;2023-05-07T14:39:28;11.83;;;5.50;;
4601;SDS011;2313;48.552;9.370;2023-05-07T14:41:54;10.13;;;5.57;;
4601;SDS011;2313;48.552;9.370;2023-05-07T14:44:21;8.93;;;6.07;;
4601;SDS011;2313;48.552;9.370;2023-05-07T14:46:46;9.93;;;5.73;;
4601;SDS011;2313;48.552;9.370;2023-05-07T14:49:13;8.23;;;5.73;;
4601;SDS011;2313;48.552;9.370;2023-05-07T14:51:42;8.27;;;5.57;;
4601;SDS011;2313;48.552;9.370;2023-05-07T14:54:11;11.20;;;6.10;;
4601;SDS011;2313;48.552;9.370;2023-05-07T14:56:37;6.30;;;5.70;;
4601;SDS011;2313;48.552;9.370;2023-05-07T14:59:03;7.70;;;5.13;;
4601;SDS011;2313;48.552;9.370;2023-05-07T15:01:29;7.93;;;4.93;;
4601;SDS011;2313;48.552;9.370;2023-05-07T15:03:55;11.50;;;5.33;;
4601;SDS011;2313;48.552;9.370;2023-05-07T15:06:21;14.20;;;4.90;;
4601;SDS011;2313;48.552;9.370;2023-05-07T15:08:46;8.20;;;4.97;;
4601;SDS011;2313;48.552;9.370;2023-05-07T15:11:13;10.83;;;6.03;;
4601;SDS011;2313;48.552;9.370;2023-05-07T15:13:39;12.00;;;5.70;;
4601;SDS011;2313;48.552;9.370;2023-05-07T15:16:04;11.43;;;4.20;;
4601;SDS011;2313;48.552;9.370;2023-05-07T15:18:30;6.53;;;3.80;;
4601;SDS011;2313;48.552;9.370;2023-05-07T15:20:56;5.20;;;3.60;;
4601;SDS011;2313;48.552;9.370;2023-05-07T15:23:22;6.57;;;3.60;;
4601;SDS011;2313;48.552;9.370;2023-05-07T15:25:48;4.60;;;3.97;;
4601;SDS011;2313;48.552;9.370;2023-05-07T15:28:14;5.60;;;3.30;;
4601;SDS011;2313;48.552;9.370;2023-05-07T15:30:39;4.20;;;3.20;;
4601;SDS011;2313;48.552;9.370;2023-05-07T15:33:05;10.10;;;3.03;;